Decoded Metar for LKNA (NAMEST in CZECH REPUBLIC) (IATA:N/A) | Meteo·Mobile Aviation Weather
aviador You're here:

LKNA Decoded Metar

NAMEST in CZECH REPUBLIC
Report Time2019-01-19 16:00:00
UTC Time2019-01-19 16:44:08
Flight Rules vfr VFR
Wind080° at 04 kt
W.Decomp.*RWY 13: 2.4 kt HW 3.2 kt LCW
W.Rank080° ranks 25
Current wind is below 080° avg. (4.7)
Visibility9999 m
Phenomena:N/A
Clouds:N/A
Expected CloudBase > 1,600 ft AGL from Temp-Dew spread
CeilingNone
Temp-3°C (ISA -15)
Dew Point-7°C (74% RH)
AAT-7.2°C
QNH1017 hPa
Density Alt-361 ft
Elevation1,549 ft
Report Wrong Elevation
Raw Report
LKNA 191600Z 08004KT CAVOK M03/M07 Q1017 NOSIG RMK BLU BLU=

Extra information for LKNA:More info

Metar Taf Metar & Taf Last 4 Metars F.Rules Stats Wind Profile Meteogram Temp Stats Airport Information Weather charts Add Link Nearby VenuesMetar ALERT Operation Metar Decoded Social comments